Time;durP1;ratioP1;P1;durP2;ratioP2;P2;SDS_P1;SDS_P2;PMS_P1;PMS_P2;Temp;Humidity;BMP_temperature;BMP_pressure;BME280_temperature;BME280_humidity;BME280_pressure;Samples;Min_cycle;Max_cycle;Signal;HPM_P1;HPM_P2
2023/02/14 00:01:33;;;;;;;29.47;17.67;;;;;;;;;;4971705;28;20592;-73
2023/02/14 00:03:59;;;;;;;28.63;17.03;;;;;;;;;;4974330;28;20216;-72
2023/02/14 00:06:25;;;;;;;29.87;15.87;;;;;;;;;;4979909;28;20203;-73
2023/02/14 00:08:52;;;;;;;25.53;15.83;;;;;;;;;;4975980;28;20185;-73
2023/02/14 00:11:18;;;;;;;29.33;15.83;;;;;;;;;;4967457;28;20196;-72
2023/02/14 00:15:20;;;;;;;25.87;14.70;;;;;;;;;;4976417;28;20196;-73
2023/02/14 00:16:28;;;;;;;28.80;16.13;;;;;;;;;;4975053;28;20214;-73
2023/02/14 00:19:03;;;;;;;24.73;14.83;;;;;;;;;;4971275;28;20180;-74
2023/02/14 00:21:28;;;;;;;23.83;14.40;;;;;;;;;;4974018;28;20183;-73
2023/02/14 00:23:53;;;;;;;24.73;14.50;;;;;;;;;;4974846;28;20204;-73
2023/02/14 00:26:19;;;;;;;26.00;14.57;;;;;;;;;;4973686;28;20189;-73
2023/02/14 00:28:44;;;;;;;26.57;14.77;;;;;;;;;;4979455;28;20185;-73
2023/02/14 00:31:09;;;;;;;24.23;14.33;;;;;;;;;;4972285;28;20185;-74
2023/02/14 00:33:34;;;;;;;25.47;15.13;;;;;;;;;;4978537;28;20200;-74
2023/02/14 00:36:02;;;;;;;27.53;15.27;;;;;;;;;;4980559;28;20270;-74
2023/02/14 00:38:27;;;;;;;28.30;16.03;;;;;;;;;;4974361;28;20207;-73
2023/02/14 00:40:52;;;;;;;29.37;16.33;;;;;;;;;;4973440;28;20255;-74
2023/02/14 00:43:17;;;;;;;30.63;18.23;;;;;;;;;;4975860;28;20208;-73
2023/02/14 00:45:43;;;;;;;30.00;17.27;;;;;;;;;;4973617;28;20231;-73
2023/02/14 00:48:08;;;;;;;31.30;17.03;;;;;;;;;;4973819;28;20668;-73
2023/02/14 00:50:33;;;;;;;26.63;16.60;;;;;;;;;;4972076;28;20614;-73
2023/02/14 00:52:58;;;;;;;27.10;15.73;;;;;;;;;;4973283;28;20604;-73
2023/02/14 00:55:24;;;;;;;30.50;16.20;;;;;;;;;;4972365;28;20247;-73
2023/02/14 00:57:49;;;;;;;29.43;16.43;;;;;;;;;;4971693;28;20284;-73
2023/02/14 01:00:14;;;;;;;25.73;15.43;;;;;;;;;;4988552;28;20255;-73
2023/02/14 01:02:39;;;;;;;28.60;15.60;;;;;;;;;;4973758;28;20208;-73
2023/02/14 01:05:05;;;;;;;27.33;15.60;;;;;;;;;;4972437;28;20654;-73
2023/02/14 01:07:30;;;;;;;28.63;16.87;;;;;;;;;;4970235;28;20180;-73
2023/02/14 01:09:55;;;;;;;31.37;17.50;;;;;;;;;;4970308;28;20187;-73
2023/02/14 01:12:20;;;;;;;28.50;16.30;;;;;;;;;;4982283;28;20231;-73
2023/02/14 01:14:45;;;;;;;28.83;15.97;;;;;;;;;;4972010;28;20191;-73
2023/02/14 01:17:11;;;;;;;33.90;18.70;;;;;;;;;;4974397;28;20579;-74
2023/02/14 01:19:37;;;;;;;30.67;16.07;;;;;;;;;;4987443;28;20250;-73
2023/02/14 01:22:02;;;;;;;29.77;17.03;;;;;;;;;;4989135;28;20275;-73
2023/02/14 01:24:27;;;;;;;30.03;17.30;;;;;;;;;;4970632;28;20275;-73
2023/02/14 01:26:52;;;;;;;32.67;16.43;;;;;;;;;;4973339;28;20200;-73
2023/02/14 01:29:18;;;;;;;33.43;17.57;;;;;;;;;;4975140;28;20180;-73
2023/02/14 01:31:43;;;;;;;31.50;17.87;;;;;;;;;;4972580;28;20208;-73
2023/02/14 01:34:09;;;;;;;31.80;18.80;;;;;;;;;;4968204;28;20705;-73
2023/02/14 01:36:36;;;;;;;30.13;17.37;;;;;;;;;;4976056;28;20290;-74
2023/02/14 01:39:03;;;;;;;34.43;18.93;;;;;;;;;;4972599;28;20188;-73
2023/02/14 01:41:30;;;;;;;36.00;19.67;;;;;;;;;;4972832;28;20188;-73
2023/02/14 01:44:01;;;;;;;31.00;18.13;;;;;;;;;;4972759;28;20242;-73
2023/02/14 01:46:31;;;;;;;32.70;19.87;;;;;;;;;;4968117;28;20609;-73
2023/02/14 01:49:00;;;;;;;36.77;19.90;;;;;;;;;;4970771;28;20230;-72
2023/02/14 01:51:25;;;;;;;35.67;18.23;;;;;;;;;;4973333;28;20207;-73
2023/02/14 01:53:51;;;;;;;34.20;19.13;;;;;;;;;;4970624;28;20208;-72
2023/02/14 01:56:20;;;;;;;33.43;18.23;;;;;;;;;;4971672;28;20274;-72
2023/02/14 01:58:48;;;;;;;40.60;20.77;;;;;;;;;;4971106;28;20204;-72
2023/02/14 02:01:15;;;;;;;35.67;18.33;;;;;;;;;;4976478;28;20176;-74
2023/02/14 02:03:46;;;;;;;41.77;20.33;;;;;;;;;;4968172;28;20204;-73
2023/02/14 02:06:16;;;;;;;37.60;19.97;;;;;;;;;;4971180;28;20332;-73
2023/02/14 02:09:01;;;;;;;34.43;20.93;;;;;;;;;;4984842;28;20180;-74
2023/02/14 02:11:27;;;;;;;39.77;19.60;;;;;;;;;;4974970;28;20192;-73
2023/02/14 02:13:52;;;;;;;38.40;20.13;;;;;;;;;;4970281;28;20234;-73
2023/02/14 02:16:18;;;;;;;41.83;20.70;;;;;;;;;;4970402;28;20854;-73
2023/02/14 02:18:49;;;;;;;40.47;21.77;;;;;;;;;;4969383;28;20198;-73
2023/02/14 02:21:30;;;;;;;36.93;19.40;;;;;;;;;;4988359;28;20291;-74
2023/02/14 02:24:21;;;;;;;37.43;21.20;;;;;;;;;;4966960;28;20297;-73
2023/02/14 02:26:46;;;;;;;37.50;18.70;;;;;;;;;;4971598;28;20694;-73
2023/02/14 02:29:27;;;;;;;35.27;19.20;;;;;;;;;;4973817;28;20237;-73
2023/02/14 02:31:55;;;;;;;33.87;19.43;;;;;;;;;;4967667;28;20184;-73
2023/02/14 02:34:26;;;;;;;34.43;18.27;;;;;;;;;;4963361;28;20173;-73
2023/02/14 02:37:03;;;;;;;33.63;17.90;;;;;;;;;;4965926;28;20292;-73
2023/02/14 02:39:35;;;;;;;35.07;19.27;;;;;;;;;;4966137;28;20186;-72
2023/02/14 02:42:20;;;;;;;38.23;19.67;;;;;;;;;;4970314;28;20267;-72
2023/02/14 02:44:51;;;;;;;32.73;18.33;;;;;;;;;;4969860;28;20188;-72
2023/02/14 02:47:26;;;;;;;37.00;19.97;;;;;;;;;;4971555;28;20227;-74
2023/02/14 02:53:02;;;;;;;41.33;20.83;;;;;;;;;;4976213;28;20259;-72
2023/02/14 02:58:33;;;;;;;38.73;19.17;;;;;;;;;;4972207;28;20695;-74
2023/02/14 03:01:00;;;;;;;31.73;18.77;;;;;;;;;;4967813;28;20184;-75
2023/02/14 03:06:11;;;;;;;39.60;20.10;;;;;;;;;;4968037;28;20203;-74
2023/02/14 03:08:36;;;;;;;32.50;18.07;;;;;;;;;;4970449;28;20556;-75
2023/02/14 03:11:03;;;;;;;36.73;19.00;;;;;;;;;;4964172;28;20271;-73
2023/02/14 03:13:28;;;;;;;34.60;17.57;;;;;;;;;;4958781;28;20195;-74
2023/02/14 03:15:54;;;;;;;36.40;19.40;;;;;;;;;;4972382;28;20204;-73
2023/02/14 03:18:25;;;;;;;32.37;17.77;;;;;;;;;;4966467;28;20638;-73
2023/02/14 03:21:02;;;;;;;35.87;17.60;;;;;;;;;;4974223;28;20176;-73
2023/02/14 03:23:34;;;;;;;31.90;17.60;;;;;;;;;;4962343;28;20202;-73
2023/02/14 03:26:00;;;;;;;37.97;17.67;;;;;;;;;;4973984;28;20207;-73
2023/02/14 03:28:40;;;;;;;32.23;17.13;;;;;;;;;;4968643;28;20176;-73
2023/02/14 03:31:17;;;;;;;34.60;17.93;;;;;;;;;;4975562;28;20249;-72
2023/02/14 03:33:48;;;;;;;30.57;16.50;;;;;;;;;;4971972;28;20176;-73
2023/02/14 03:36:21;;;;;;;41.57;18.97;;;;;;;;;;4970176;28;20208;-72
2023/02/14 03:38:51;;;;;;;37.47;18.57;;;;;;;;;;4960942;28;20180;-73
2023/02/14 03:41:21;;;;;;;33.53;17.27;;;;;;;;;;4973605;28;20551;-73
2023/02/14 03:43:55;;;;;;;36.30;17.67;;;;;;;;;;4974963;28;20694;-74
2023/02/14 03:46:28;;;;;;;29.33;16.47;;;;;;;;;;4977946;28;20230;-73
2023/02/14 03:48:54;;;;;;;34.30;17.43;;;;;;;;;;4974534;28;20221;-74
2023/02/14 03:51:21;;;;;;;31.63;16.73;;;;;;;;;;4974804;28;20211;-74
2023/02/14 03:53:48;;;;;;;30.03;16.70;;;;;;;;;;4971302;28;20191;-73
2023/02/14 03:56:13;;;;;;;31.30;16.73;;;;;;;;;;4974897;28;20192;-74
2023/02/14 03:58:41;;;;;;;36.67;19.80;;;;;;;;;;4965918;28;20188;-73
2023/02/14 04:01:12;;;;;;;33.73;18.40;;;;;;;;;;4972638;28;20242;-74
2023/02/14 04:03:39;;;;;;;33.10;16.50;;;;;;;;;;4969156;28;20196;-73
2023/02/14 04:06:04;;;;;;;33.17;16.27;;;;;;;;;;4967960;28;20197;-73
2023/02/14 04:08:29;;;;;;;38.13;17.30;;;;;;;;;;4974116;28;20552;-73
2023/02/14 04:10:56;;;;;;;34.20;17.70;;;;;;;;;;4973897;28;20169;-73
2023/02/14 04:13:21;;;;;;;35.20;17.93;;;;;;;;;;4974842;28;20191;-72
2023/02/14 04:15:47;;;;;;;39.47;17.73;;;;;;;;;;4979101;28;20207;-74
2023/02/14 04:20:56;;;;;;;38.03;18.07;;;;;;;;;;4971982;28;20575;-73
2023/02/14 04:23:21;;;;;;;32.67;16.70;;;;;;;;;;4971587;28;20208;-74
2023/02/14 04:25:46;;;;;;;35.57;16.67;;;;;;;;;;4970719;28;20230;-73
2023/02/14 04:28:12;;;;;;;50.10;18.40;;;;;;;;;;4965719;28;20259;-74
2023/02/14 04:30:37;;;;;;;43.47;16.53;;;;;;;;;;4972759;28;20178;-74
2023/02/14 04:33:03;;;;;;;54.33;18.90;;;;;;;;;;4967120;28;20266;-74
2023/02/14 04:35:28;;;;;;;54.80;18.87;;;;;;;;;;4971413;28;20211;-74
2023/02/14 04:37:53;;;;;;;49.70;17.37;;;;;;;;;;4973206;28;20195;-74
2023/02/14 04:40:18;;;;;;;46.87;18.37;;;;;;;;;;4983593;28;20212;-73
2023/02/14 04:42:44;;;;;;;56.47;19.30;;;;;;;;;;4973529;28;20674;-73
2023/02/14 04:45:10;;;;;;;35.80;18.17;;;;;;;;;;4975020;28;20227;-72
2023/02/14 04:47:35;;;;;;;45.40;16.90;;;;;;;;;;4971206;28;20692;-73
2023/02/14 04:50:00;;;;;;;35.23;16.70;;;;;;;;;;4965834;28;20219;-73
2023/02/14 04:52:25;;;;;;;34.60;17.90;;;;;;;;;;4973912;28;20191;-73
2023/02/14 04:54:50;;;;;;;40.17;17.33;;;;;;;;;;4965857;28;20242;-73
2023/02/14 04:57:15;;;;;;;39.47;16.60;;;;;;;;;;4969522;28;20188;-73
2023/02/14 04:59:41;;;;;;;42.20;18.43;;;;;;;;;;4968518;28;20184;-72
2023/02/14 05:02:06;;;;;;;26.20;15.50;;;;;;;;;;4971351;28;20196;-72
2023/02/14 05:04:31;;;;;;;43.90;18.87;;;;;;;;;;4973047;28;20172;-73
2023/02/14 05:06:56;;;;;;;36.87;15.73;;;;;;;;;;4968261;28;20200;-74
2023/02/14 05:09:22;;;;;;;35.07;16.10;;;;;;;;;;4971889;28;20259;-73
2023/02/14 05:11:47;;;;;;;27.40;16.33;;;;;;;;;;4968898;28;20190;-76
2023/02/14 05:14:12;;;;;;;23.30;14.17;;;;;;;;;;4966078;28;20185;-74
2023/02/14 05:16:37;;;;;;;25.50;16.87;;;;;;;;;;4970714;28;20195;-74
2023/02/14 05:19:03;;;;;;;36.87;16.97;;;;;;;;;;4972095;28;20182;-74
2023/02/14 05:21:31;;;;;;;25.27;16.07;;;;;;;;;;4975487;28;20199;-74
2023/02/14 05:23:57;;;;;;;35.23;17.43;;;;;;;;;;4969188;28;20208;-74
2023/02/14 05:26:22;;;;;;;40.07;17.57;;;;;;;;;;4976598;28;20231;-74
2023/02/14 05:28:47;;;;;;;31.10;17.83;;;;;;;;;;4969380;28;20219;-74
2023/02/14 05:31:12;;;;;;;33.00;17.40;;;;;;;;;;4972461;28;20195;-74
2023/02/14 05:33:37;;;;;;;23.87;15.50;;;;;;;;;;4977359;28;20511;-74
2023/02/14 05:36:03;;;;;;;37.87;17.83;;;;;;;;;;4974625;28;20689;-73
2023/02/14 05:38:28;;;;;;;27.07;17.10;;;;;;;;;;4973225;28;20267;-74
2023/02/14 05:40:53;;;;;;;26.47;16.40;;;;;;;;;;4968768;28;20678;-74
2023/02/14 05:43:19;;;;;;;32.83;17.47;;;;;;;;;;4971781;28;20236;-74
2023/02/14 05:45:44;;;;;;;29.83;17.63;;;;;;;;;;4972028;28;20658;-74
2023/02/14 05:48:09;;;;;;;30.83;17.53;;;;;;;;;;4968641;28;20173;-74
2023/02/14 05:50:34;;;;;;;31.10;16.97;;;;;;;;;;4967261;28;20234;-73
2023/02/14 05:53:00;;;;;;;39.10;18.73;;;;;;;;;;4972422;28;20196;-73
2023/02/14 05:55:25;;;;;;;29.43;17.70;;;;;;;;;;4974257;28;20200;-74
2023/02/14 05:57:50;;;;;;;30.27;17.53;;;;;;;;;;4967799;28;20198;-73
2023/02/14 06:00:15;;;;;;;37.13;19.20;;;;;;;;;;4972014;28;20188;-74
2023/02/14 06:02:40;;;;;;;26.67;17.33;;;;;;;;;;4973989;28;20196;-74
2023/02/14 06:05:06;;;;;;;38.33;18.77;;;;;;;;;;4967957;28;20544;-73
2023/02/14 06:07:31;;;;;;;29.73;15.90;;;;;;;;;;4974790;28;20630;-74
2023/02/14 06:09:56;;;;;;;27.90;17.17;;;;;;;;;;4971697;28;20184;-73
2023/02/14 06:12:21;;;;;;;31.23;19.00;;;;;;;;;;4959640;28;20710;-73
2023/02/14 06:14:47;;;;;;;40.03;17.93;;;;;;;;;;4962106;28;20204;-73
2023/02/14 06:17:12;;;;;;;31.23;17.30;;;;;;;;;;4971887;28;20231;-73
2023/02/14 06:19:37;;;;;;;29.47;16.43;;;;;;;;;;4980972;28;20183;-72
2023/02/14 06:22:02;;;;;;;25.73;16.53;;;;;;;;;;4969241;28;20184;-73
2023/02/14 06:24:28;;;;;;;50.63;21.30;;;;;;;;;;4972239;28;20225;-73
2023/02/14 06:26:53;;;;;;;41.07;20.83;;;;;;;;;;4969108;28;20196;-73
2023/02/14 06:29:18;;;;;;;33.77;18.23;;;;;;;;;;4970833;28;20233;-73
2023/02/14 06:31:43;;;;;;;33.97;18.87;;;;;;;;;;4971822;28;20331;-73
2023/02/14 06:34:08;;;;;;;37.00;17.93;;;;;;;;;;4970677;28;20184;-74
2023/02/14 06:36:34;;;;;;;30.93;17.73;;;;;;;;;;4972649;28;20215;-73
2023/02/14 06:38:59;;;;;;;33.03;17.63;;;;;;;;;;4968823;28;20184;-74
2023/02/14 06:41:24;;;;;;;30.03;18.00;;;;;;;;;;4965017;28;20616;-74
2023/02/14 06:43:49;;;;;;;38.10;19.23;;;;;;;;;;4968304;28;20203;-74
2023/02/14 06:46:15;;;;;;;32.53;19.37;;;;;;;;;;4971535;28;20290;-73
2023/02/14 06:48:40;;;;;;;34.47;19.60;;;;;;;;;;4964492;28;20729;-73
2023/02/14 06:51:06;;;;;;;37.33;18.83;;;;;;;;;;4972142;28;20176;-74
2023/02/14 06:53:31;;;;;;;31.80;17.67;;;;;;;;;;4988258;28;20235;-73
2023/02/14 06:55:56;;;;;;;42.30;21.07;;;;;;;;;;4972457;28;20693;-73
2023/02/14 06:58:22;;;;;;;32.73;18.90;;;;;;;;;;4972256;28;20207;-73
2023/02/14 07:00:47;;;;;;;37.20;21.17;;;;;;;;;;4969069;28;20200;-73
2023/02/14 07:03:12;;;;;;;36.20;20.37;;;;;;;;;;4969690;28;20220;-74
2023/02/14 07:05:37;;;;;;;38.83;20.13;;;;;;;;;;4971624;28;20643;-74
2023/02/14 07:08:03;;;;;;;36.67;19.33;;;;;;;;;;4970167;28;20219;-73
2023/02/14 07:10:28;;;;;;;37.90;20.20;;;;;;;;;;4970702;28;20172;-73
2023/02/14 07:12:53;;;;;;;38.20;21.13;;;;;;;;;;4967031;28;20212;-73
2023/02/14 07:15:19;;;;;;;36.90;19.87;;;;;;;;;;4959069;28;20201;-73
2023/02/14 07:17:44;;;;;;;46.50;22.83;;;;;;;;;;4966462;28;20191;-73
2023/02/14 07:20:10;;;;;;;39.70;22.23;;;;;;;;;;4962056;28;20180;-73
2023/02/14 07:22:35;;;;;;;42.80;22.33;;;;;;;;;;4965023;28;20200;-73
2023/02/14 07:25:01;;;;;;;41.57;23.10;;;;;;;;;;4967810;28;20698;-73
2023/02/14 07:27:26;;;;;;;42.23;22.00;;;;;;;;;;4965294;28;20199;-74
2023/02/14 07:29:51;;;;;;;47.53;24.77;;;;;;;;;;4960310;28;20324;-74
2023/02/14 07:32:16;;;;;;;56.23;26.60;;;;;;;;;;4963002;28;20177;-73
2023/02/14 07:34:41;;;;;;;55.90;26.63;;;;;;;;;;4973652;28;20180;-74
2023/02/14 07:37:07;;;;;;;54.03;28.27;;;;;;;;;;4970849;28;20295;-73
2023/02/14 07:39:32;;;;;;;59.60;28.43;;;;;;;;;;4946474;28;20536;-74
2023/02/14 07:41:57;;;;;;;60.50;27.03;;;;;;;;;;4946032;28;20183;-72
2023/02/14 07:44:22;;;;;;;55.50;27.27;;;;;;;;;;4965099;28;20283;-74
2023/02/14 07:46:47;;;;;;;61.73;29.07;;;;;;;;;;4966513;28;20196;-73
2023/02/14 07:49:13;;;;;;;61.47;30.93;;;;;;;;;;4967433;28;20173;-74
2023/02/14 07:51:38;;;;;;;65.73;30.63;;;;;;;;;;4964545;28;20665;-73
2023/02/14 07:54:03;;;;;;;74.43;31.07;;;;;;;;;;4972093;28;20187;-73
2023/02/14 07:56:28;;;;;;;62.50;31.03;;;;;;;;;;4971542;28;20278;-73
2023/02/14 07:58:54;;;;;;;62.47;30.80;;;;;;;;;;4964866;28;20211;-74
2023/02/14 08:01:19;;;;;;;68.77;33.20;;;;;;;;;;4966649;28;20669;-74
2023/02/14 08:03:48;;;;;;;62.73;32.60;;;;;;;;;;4971739;28;20250;-73
2023/02/14 08:06:13;;;;;;;69.93;33.27;;;;;;;;;;4980449;28;20195;-76
2023/02/14 08:08:38;;;;;;;66.03;33.23;;;;;;;;;;4971675;28;20259;-75
2023/02/14 08:11:04;;;;;;;78.70;34.57;;;;;;;;;;4966693;28;20201;-74
2023/02/14 08:13:29;;;;;;;74.97;33.60;;;;;;;;;;4977007;28;20208;-74
2023/02/14 08:16:03;;;;;;;78.47;36.43;;;;;;;;;;4966475;28;20266;-74
2023/02/14 08:18:29;;;;;;;79.63;36.33;;;;;;;;;;4957255;28;20188;-74
2023/02/14 08:20:54;;;;;;;83.03;37.43;;;;;;;;;;4954996;28;20196;-74
2023/02/14 08:23:20;;;;;;;77.23;37.53;;;;;;;;;;4955317;28;20248;-74
2023/02/14 08:25:46;;;;;;;87.10;39.73;;;;;;;;;;4955324;28;21630;-74
2023/02/14 08:28:12;;;;;;;76.10;38.33;;;;;;;;;;4954267;28;20192;-74
2023/02/14 08:30:37;;;;;;;70.97;37.50;;;;;;;;;;4945415;28;20227;-74
2023/02/14 08:33:03;;;;;;;74.67;37.70;;;;;;;;;;4955040;28;20288;-74
2023/02/14 08:35:28;;;;;;;72.50;38.13;;;;;;;;;;4952885;28;20216;-74
2023/02/14 08:37:53;;;;;;;69.73;37.97;;;;;;;;;;4955433;28;20190;-75
2023/02/14 08:40:19;;;;;;;70.10;37.27;;;;;;;;;;4955413;28;20344;-74
2023/02/14 08:42:44;;;;;;;68.40;38.17;;;;;;;;;;4953018;28;21769;-74
2023/02/14 08:45:09;;;;;;;64.13;35.73;;;;;;;;;;4957111;28;20199;-74
2023/02/14 08:47:37;;;;;;;66.67;37.23;;;;;;;;;;4960502;28;20182;-74
2023/02/14 08:50:03;;;;;;;57.70;35.50;;;;;;;;;;4958591;28;20185;-74
2023/02/14 08:52:28;;;;;;;52.20;32.60;;;;;;;;;;4956312;28;20215;-75
2023/02/14 08:54:53;;;;;;;59.53;33.60;;;;;;;;;;4956693;28;20307;-75
2023/02/14 08:57:19;;;;;;;55.43;33.60;;;;;;;;;;4957111;28;20202;-75
2023/02/14 08:59:44;;;;;;;51.37;32.73;;;;;;;;;;4958210;28;20243;-74
2023/02/14 09:02:12;;;;;;;46.47;30.13;;;;;;;;;;4957341;28;20202;-73
2023/02/14 09:04:38;;;;;;;48.23;31.03;;;;;;;;;;4954769;28;20184;-75
2023/02/14 09:07:03;;;;;;;54.63;30.83;;;;;;;;;;4958969;28;20207;-74
2023/02/14 09:09:29;;;;;;;46.23;30.40;;;;;;;;;;4953100;28;20280;-74
2023/02/14 09:11:55;;;;;;;47.70;28.60;;;;;;;;;;4950833;28;20183;-74
2023/02/14 09:14:20;;;;;;;48.00;29.53;;;;;;;;;;4957133;28;20286;-74
2023/02/14 09:16:46;;;;;;;45.93;27.60;;;;;;;;;;4956047;28;20231;-76
2023/02/14 09:19:11;;;;;;;40.50;27.40;;;;;;;;;;4972327;28;20176;-75
2023/02/14 09:21:36;;;;;;;42.33;27.47;;;;;;;;;;4955326;28;20212;-75
2023/02/14 09:24:01;;;;;;;42.23;27.53;;;;;;;;;;4955056;28;20212;-75
2023/02/14 09:26:28;;;;;;;39.90;26.97;;;;;;;;;;4952261;28;20726;-75
2023/02/14 09:28:53;;;;;;;36.00;23.73;;;;;;;;;;4954094;28;20191;-76
2023/02/14 09:31:19;;;;;;;34.23;24.57;;;;;;;;;;4959364;28;20720;-76
2023/02/14 09:33:45;;;;;;;33.00;21.13;;;;;;;;;;4955521;28;20406;-76
2023/02/14 09:38:55;;;;;;;30.87;21.43;;;;;;;;;;4930430;28;20258;-72
2023/02/14 09:41:31;;;;;;;31.40;21.13;;;;;;;;;;4928643;28;20190;-73
2023/02/14 09:44:02;;;;;;;36.00;21.50;;;;;;;;;;4936028;28;21751;-74
2023/02/14 09:46:29;;;;;;;29.03;22.00;;;;;;;;;;4930466;28;20699;-73
2023/02/14 09:48:54;;;;;;;29.47;19.43;;;;;;;;;;4930010;28;20280;-73
2023/02/14 09:51:22;;;;;;;30.53;21.60;;;;;;;;;;4927375;28;20186;-73
2023/02/14 09:53:53;;;;;;;28.13;19.43;;;;;;;;;;4930315;28;20194;-73
2023/02/14 09:56:31;;;;;;;26.30;18.83;;;;;;;;;;4929922;28;20220;-73
2023/02/14 09:58:57;;;;;;;27.53;20.20;;;;;;;;;;4934550;28;20575;-73
2023/02/14 10:01:25;;;;;;;27.93;19.60;;;;;;;;;;4931164;28;20204;-72
2023/02/14 10:03:56;;;;;;;30.43;21.03;;;;;;;;;;4929868;28;20223;-72
2023/02/14 10:06:36;;;;;;;28.87;19.93;;;;;;;;;;4931233;28;20201;-72
2023/02/14 10:09:11;;;;;;;28.40;18.93;;;;;;;;;;4931731;28;20275;-73
2023/02/14 10:11:37;;;;;;;27.92;20.42;;;;;;;;;;4929356;28;20234;-72
2023/02/14 10:14:02;;;;;;;29.63;20.57;;;;;;;;;;4932696;28;20193;-73
2023/02/14 10:16:31;;;;;;;26.67;19.73;;;;;;;;;;4934286;28;20632;-73
2023/02/14 10:19:02;;;;;;;28.65;20.67;;;;;;;;;;4931958;28;20248;-72
2023/02/14 10:21:45;;;;;;;27.42;19.48;;;;;;;;;;4929572;28;20192;-73
2023/02/14 10:24:31;;;;;;;29.23;18.65;;;;;;;;;;4929734;28;20212;-73
2023/02/14 10:27:01;;;;;;;29.42;19.10;;;;;;;;;;4930116;28;20231;-72
2023/02/14 10:29:27;;;;;;;24.90;19.05;;;;;;;;;;4931392;28;20191;-73
2023/02/14 10:31:59;;;;;;;26.58;18.95;;;;;;;;;;4932706;28;20180;-72
2023/02/14 10:34:29;;;;;;;25.45;18.38;;;;;;;;;;4928865;28;20673;-72
2023/02/14 10:37:00;;;;;;;25.85;19.02;;;;;;;;;;4929476;28;20793;-72
2023/02/14 10:39:44;;;;;;;29.25;19.73;;;;;;;;;;4930095;28;20196;-73
2023/02/14 10:42:31;;;;;;;24.88;18.00;;;;;;;;;;4930086;28;20731;-73
2023/02/14 10:45:15;;;;;;;24.55;18.92;;;;;;;;;;4930697;28;21089;-72
2023/02/14 10:47:45;;;;;;;27.30;18.60;;;;;;;;;;4928031;28;20189;-72
2023/02/14 10:50:40;;;;;;;24.42;18.52;;;;;;;;;;4932672;28;20181;-72
2023/02/14 10:53:14;;;;;;;24.42;18.20;;;;;;;;;;4930139;28;20669;-72
2023/02/14 10:55:39;;;;;;;29.05;21.30;;;;;;;;;;4929464;28;20288;-72
2023/02/14 10:58:05;;;;;;;25.43;17.97;;;;;;;;;;4933663;28;20181;-72
2023/02/14 11:00:36;;;;;;;27.52;19.08;;;;;;;;;;4933763;28;20441;-72
2023/02/14 11:03:05;;;;;;;27.65;19.70;;;;;;;;;;4931591;28;20282;-72
2023/02/14 11:05:35;;;;;;;30.48;19.35;;;;;;;;;;4929618;28;20671;-72
2023/02/14 11:08:01;;;;;;;24.52;18.65;;;;;;;;;;4934999;28;20180;-73
2023/02/14 11:10:29;;;;;;;24.95;19.35;;;;;;;;;;4929086;28;20178;-73
2023/02/14 11:12:54;;;;;;;26.60;20.00;;;;;;;;;;4928151;28;20185;-72
2023/02/14 11:15:20;;;;;;;23.33;17.95;;;;;;;;;;4929150;28;20543;-72
2023/02/14 11:17:45;;;;;;;26.35;19.00;;;;;;;;;;4928641;28;20219;-72
2023/02/14 11:20:21;;;;;;;28.75;20.08;;;;;;;;;;4929249;28;20231;-73
2023/02/14 11:22:46;;;;;;;24.98;18.48;;;;;;;;;;4931321;28;20259;-73
2023/02/14 11:25:19;;;;;;;27.13;18.77;;;;;;;;;;4931625;28;20177;-72
2023/02/14 11:27:49;;;;;;;25.40;18.10;;;;;;;;;;4929149;28;20760;-72
2023/02/14 11:30:29;;;;;;;26.58;19.45;;;;;;;;;;4932257;28;20538;-72
2023/02/14 11:32:55;;;;;;;26.60;18.00;;;;;;;;;;4928704;28;20236;-72
2023/02/14 11:35:23;;;;;;;25.80;19.02;;;;;;;;;;4930616;28;20604;-72
2023/02/14 11:37:49;;;;;;;26.40;19.88;;;;;;;;;;4931873;28;20290;-73
2023/02/14 11:40:33;;;;;;;27.15;18.95;;;;;;;;;;4932424;28;21650;-72
2023/02/14 11:43:00;;;;;;;26.40;19.33;;;;;;;;;;4934495;28;20217;-72
2023/02/14 11:45:25;;;;;;;28.30;19.33;;;;;;;;;;4930805;28;20245;-73
2023/02/14 11:48:05;;;;;;;29.30;20.53;;;;;;;;;;4932514;28;20648;-73
2023/02/14 11:50:30;;;;;;;24.55;18.45;;;;;;;;;;4931689;28;20454;-73
2023/02/14 11:52:56;;;;;;;25.85;19.00;;;;;;;;;;4931411;28;20308;-73
2023/02/14 11:55:29;;;;;;;26.42;19.25;;;;;;;;;;4934286;28;20830;-73
2023/02/14 11:57:54;;;;;;;25.35;19.10;;;;;;;;;;4933096;28;20185;-73
2023/02/14 12:00:20;;;;;;;25.55;18.73;;;;;;;;;;4935101;28;20813;-73
2023/02/14 12:02:47;;;;;;;26.23;19.45;;;;;;;;;;4934015;28;20285;-73
2023/02/14 12:05:22;;;;;;;22.25;18.55;;;;;;;;;;4931763;28;20789;-73
2023/02/14 12:07:49;;;;;;;26.67;19.98;;;;;;;;;;4935173;28;20247;-73
2023/02/14 12:10:14;;;;;;;23.88;18.73;;;;;;;;;;4930997;28;20833;-73
2023/02/14 12:12:53;;;;;;;24.15;18.17;;;;;;;;;;4931684;28;20193;-73
2023/02/14 12:15:26;;;;;;;24.42;16.75;;;;;;;;;;4931340;28;20204;-73
2023/02/14 12:18:17;;;;;;;24.85;19.60;;;;;;;;;;4951349;28;20192;-73
2023/02/14 12:21:02;;;;;;;22.67;17.58;;;;;;;;;;4968643;28;20193;-73
2023/02/14 12:23:42;;;;;;;18.88;16.42;;;;;;;;;;4955395;28;20223;-73
2023/02/14 12:26:13;;;;;;;21.65;17.13;;;;;;;;;;4933711;28;20208;-73
2023/02/14 12:28:42;;;;;;;23.90;16.83;;;;;;;;;;4927063;28;20291;-73
2023/02/14 12:31:09;;;;;;;26.55;19.17;;;;;;;;;;4934974;28;20182;-73
2023/02/14 12:33:34;;;;;;;20.80;16.70;;;;;;;;;;4931377;28;20181;-73
2023/02/14 12:36:07;;;;;;;25.63;18.40;;;;;;;;;;4929550;28;20829;-73
2023/02/14 12:38:33;;;;;;;26.45;17.58;;;;;;;;;;4933201;28;20267;-73
2023/02/14 12:40:58;;;;;;;23.83;17.43;;;;;;;;;;4930460;28;20188;-73
2023/02/14 12:43:42;;;;;;;22.63;17.37;;;;;;;;;;4933101;28;21016;-74
2023/02/14 12:46:26;;;;;;;23.27;16.90;;;;;;;;;;4942278;28;20994;-73
2023/02/14 12:49:09;;;;;;;19.65;14.77;;;;;;;;;;4930942;28;20199;-73
2023/02/14 12:51:53;;;;;;;21.50;16.02;;;;;;;;;;4930429;28;20240;-73
2023/02/14 12:54:21;;;;;;;24.75;18.20;;;;;;;;;;4933826;28;20671;-73
2023/02/14 12:56:54;;;;;;;23.83;17.00;;;;;;;;;;4941759;28;20209;-73
2023/02/14 12:59:22;;;;;;;22.08;17.33;;;;;;;;;;4935514;28;20197;-73
2023/02/14 13:02:00;;;;;;;22.00;16.42;;;;;;;;;;4935911;28;20188;-73
2023/02/14 13:04:36;;;;;;;22.90;17.20;;;;;;;;;;4934318;28;20260;-73
2023/02/14 13:07:13;;;;;;;21.73;17.42;;;;;;;;;;4930109;28;20573;-73
2023/02/14 13:09:49;;;;;;;27.45;19.33;;;;;;;;;;4933621;28;20178;-74
2023/02/14 13:12:33;;;;;;;23.08;16.90;;;;;;;;;;4929282;28;20319;-73
2023/02/14 13:15:01;;;;;;;23.92;18.33;;;;;;;;;;4930843;28;20264;-72
2023/02/14 13:17:56;;;;;;;24.25;17.05;;;;;;;;;;4931307;28;20303;-73
2023/02/14 13:20:44;;;;;;;21.90;17.33;;;;;;;;;;4922195;28;20331;-73
2023/02/14 13:23:33;;;;;;;24.63;17.88;;;;;;;;;;4932064;28;20218;-73
2023/02/14 13:26:19;;;;;;;29.05;18.48;;;;;;;;;;4934730;28;20308;-73
2023/02/14 13:28:56;;;;;;;25.27;18.38;;;;;;;;;;4931308;28;20491;-73
2023/02/14 13:31:22;;;;;;;21.67;16.65;;;;;;;;;;4954532;28;20189;-74
2023/02/14 13:33:52;;;;;;;24.08;16.85;;;;;;;;;;4933873;28;20193;-73
2023/02/14 13:36:17;;;;;;;25.30;17.98;;;;;;;;;;4931812;28;21759;-73
2023/02/14 13:38:47;;;;;;;23.00;18.13;;;;;;;;;;4930955;28;20287;-73
2023/02/14 13:41:13;;;;;;;24.55;19.08;;;;;;;;;;4928879;28;20245;-73
2023/02/14 13:43:48;;;;;;;24.35;19.30;;;;;;;;;;4938881;28;20201;-73
2023/02/14 13:46:14;;;;;;;27.92;20.02;;;;;;;;;;4941911;28;20292;-73
2023/02/14 13:48:40;;;;;;;27.02;20.15;;;;;;;;;;4929046;28;20192;-74
2023/02/14 13:51:07;;;;;;;25.80;18.83;;;;;;;;;;4936431;28;20189;-73
2023/02/14 13:53:37;;;;;;;24.48;18.83;;;;;;;;;;4948195;28;20181;-72
2023/02/14 13:56:03;;;;;;;24.95;18.60;;;;;;;;;;4949195;28;20291;-73
2023/02/14 13:58:29;;;;;;;23.00;18.00;;;;;;;;;;4942228;28;20189;-73
2023/02/14 14:00:54;;;;;;;24.10;18.65;;;;;;;;;;4947735;28;20185;-73
2023/02/14 14:03:26;;;;;;;29.55;19.33;;;;;;;;;;4949927;28;20216;-73
2023/02/14 14:06:03;;;;;;;27.73;19.77;;;;;;;;;;4952646;28;20572;-73
2023/02/14 14:08:30;;;;;;;29.17;18.95;;;;;;;;;;4954456;28;20702;-73
2023/02/14 14:11:00;;;;;;;25.55;19.73;;;;;;;;;;4952823;28;20627;-74
2023/02/14 14:13:40;;;;;;;30.67;19.25;;;;;;;;;;4951590;28;20606;-73
2023/02/14 14:16:25;;;;;;;27.25;18.30;;;;;;;;;;4963247;28;20747;-73
2023/02/14 14:18:52;;;;;;;22.92;17.70;;;;;;;;;;4952044;28;20173;-73
2023/02/14 14:21:24;;;;;;;27.42;19.42;;;;;;;;;;4953276;28;20193;-73
2023/02/14 14:24:08;;;;;;;24.83;18.20;;;;;;;;;;4949347;28;20204;-73
2023/02/14 14:26:35;;;;;;;25.13;18.38;;;;;;;;;;4967951;28;20204;-73
2023/02/14 14:29:00;;;;;;;27.10;19.33;;;;;;;;;;4948076;28;20177;-73
2023/02/14 14:31:26;;;;;;;23.70;17.33;;;;;;;;;;4949622;28;20695;-73
2023/02/14 14:33:59;;;;;;;28.67;19.20;;;;;;;;;;4947858;28;21100;-73
2023/02/14 14:36:24;;;;;;;25.17;19.05;;;;;;;;;;4953845;28;20211;-73
2023/02/14 14:38:51;;;;;;;27.08;18.58;;;;;;;;;;4951407;28;20180;-73